• Join FlightAware (Why Join?)
  • Login
  • US Flag 
09:26PM EDT


 

Airport Tracker/Info


-or-


 

Live Flight TrackerFlight Track Log ✈ AWE1262 ✈ 19-Apr-2013 ✈ KPHL - KMHT

Flight Track Log - Related Links

Times and Time Zones

All times are in EDT time to prevent confusion due to time zone crossing. See the AWE1262 flight status page for this flight to view local times or setup timezone preferences in your user account.

Time Position Orientation Groundspeed Altitude Reporting Facility
EDT Latitude Longitude Course Direction KTS MPH feet Rate Location/Type
11:49PM 39.8614 -75.2706 37° Northeast 151 174 900  Level FAA TRACON SMA TRACON (SMA)
11:49PM 39.8528 -75.2883 238° Southwest 166 191 1,900 2,220 Climbing FAA TRACON SMA TRACON (SMA)
11:49PM 39.8439 -75.3047 235° Southwest 176 203 2,400 1,200 Climbing FAA TRACON SMA TRACON (SMA)
11:50PM 39.8358 -75.3228 240° Southwest 209 241 2,700 2,220 Climbing FAA TRACON SMA TRACON (SMA)
11:50PM 39.8206 -75.3450 228° Southwest 214 246 3,900 3,120 Climbing FAA TRACON SMA TRACON (SMA)
11:50PM 39.8028 -75.3450 180° South 218 251 4,800 3,060 Climbing FAA TRACON SMA TRACON (SMA)
11:51PM 39.7958 -74.7621 105° East  Level FlightAware Approximate
11:51PM 39.7872 -75.3228 132° Southeast 237 273 6,000  Level FAA TRACON SMA TRACON (SMA)
11:51PM 39.7853 -75.2919 95° East 311 358 6,600 2,100 Climbing FAA TRACON SMA TRACON (SMA)
11:51PM 39.7908 -75.2558 79° East 326 375 7,400 2,700 Climbing FAA TRACON SMA TRACON (SMA)
11:52PM 39.8438 -74.6396 37° Northeast  Level FlightAware Approximate
11:52PM 39.7914 -75.2111 89° East 329 379 8,400  Level FAA TRACON SMA TRACON (SMA)
11:52PM 39.7914 -75.1744 90° East 329 379 9,400 2,700 Climbing FAA TRACON SMA TRACON (SMA)
11:52PM 39.7914 -75.1392 90° East 330 380 10,200 1,800 Climbing FAA TRACON SMA TRACON (SMA)
11:53PM 39.9468 -74.5532 37° Northeast  Level FlightAware Approximate
11:53PM 39.7919 -75.0886 89° East 374 430 10,600  Level FAA TRACON SMA TRACON (SMA)
11:53PM 39.7919 -75.0458 90° East 392 451 11,000 1,800 Climbing FAA TRACON SMA TRACON (SMA)
11:53PM 39.7925 -75.0017 89° East 400 460 11,800 1,440 Climbing FAA TRACON SMA TRACON (SMA)
11:54PM 40.0464 -74.4536 37° Northeast  Level FlightAware Approximate
11:54PM 39.7925 -74.9467 90° East 398 458 12,000  Level FAA TRACON SMA TRACON (SMA)
11:54PM 39.7928 -74.9039 90° East 401 461 12,000  Level FAA TRACON SMA TRACON (SMA)
11:54PM 39.7931 -74.8567 90° East 404 465 12,000 300 Level FAA TRACON SMA TRACON (SMA)
11:55PM 39.7933 -74.8006 90° East 404 465 12,200 1,620 Climbing FAA TRACON SMA TRACON (SMA)
11:55PM 39.7983 -74.7550 82° East 433 498 13,100 2,820 Climbing FAA TRACON SMA TRACON (SMA)
11:55PM 39.8125 -74.7117 67° East 427 491 14,100 2,520 Climbing FAA TRACON SMA TRACON (SMA)
11:56PM 39.8456 -74.6675 46° Northeast 450 518 14,800 2,220 Climbing FAA TRACON SMA TRACON (SMA)
11:56PM 39.8769 -74.6350 38° Northeast 465 535 15,600 2,520 Climbing FAA TRACON SMA TRACON (SMA)
11:56PM 39.9158 -74.5964 37° Northeast 461 531 16,500 2,400 Climbing FAA TRACON SMA TRACON (SMA)
11:57PM 39.9478 -74.5647 37° Northeast 464 534 17,200 2,100 Climbing FAA TRACON SMA TRACON (SMA)
11:57PM 39.9797 -74.5333 37° Northeast 466 536 17,900 1,620 Climbing FAA TRACON SMA TRACON (SMA)
11:57PM 39.9878 -74.5253 37° Northeast 468 539 18,300 1,920 Climbing FAA TRACON SMA TRACON (SMA)
11:59PM 40.1614 -74.3533 37° Northeast 460 529 21,400 1,860 Climbing New York Center
12:00AM 40.2731 -74.2450 36° Northeast 481 554 23,100 1,380 Climbing New York Center
12:02AM 40.4390 -74.2380 North  Level FlightAware Approximate
12:04AM 40.7892 -74.1397 North 508 585 27,900  Level Boston Center
12:05AM 40.9333 -74.1133 North 513 590 28,900 1,140 Climbing Boston Center
12:06AM 41.0817 -74.0894 North 524 603 30,200 1,200 Climbing Boston Center
12:07AM 41.2319 -74.0631 North 529 609 31,400 1,140 Climbing Boston Center
12:08AM 41.3783 -74.0392 North 529 609 32,500 780 Climbing Boston Center
12:09AM 41.1358 -74.1000 North  Level FlightAware Approximate
12:09AM 41.5244 -74.0150 North 534 615 33,000  Level Boston Center
12:10AM 41.6769 -73.9883 North 540 621 33,000  Level Boston Center
12:11AM 41.8128 -73.9664 North 540 621 33,000  Level Boston Center
12:12AM 41.9653 -73.9422 North 545 627 33,000  Level Boston Center
12:13AM 42.1158 -73.8983 12° North 545 627 33,000  Level Boston Center
12:14AM 42.2322 -73.7636 41° Northeast 524 603 33,000  Level Boston Center
12:15AM 42.3117 -73.5519 63° Northeast 522 601 33,000 -780 Level Boston Center
12:16AM 42.3733 -73.4039 61° Northeast 516 594 31,500 -2,160 Descending Boston Center
12:17AM 42.4500 -73.1997 63° Northeast 525 604 28,700 -2,700 Descending Boston Center
12:18AM 42.5156 -73.0261 63° Northeast 530 610 26,200 -2,520 Descending Boston Center
12:19AM 42.5811 -72.8461 64° Northeast 524 603 23,700 -2,820 Descending Boston Center
12:20AM 42.6294 -72.6772 69° East 506 582 20,600 -3,000 Descending Boston Center
12:21AM 42.6714 -72.5192 70° East 478 550 17,800 -3,180 Descending Boston Center
12:22AM 42.7108 -72.3611 71° East 446 513 14,300 -2,940 Descending Boston Center
12:23AM 42.7461 -72.2253 70° East 428 493 12,000 -1,980 Descending Boston Center
12:24AM 42.7875 -72.0864 68° East 377 434 10,400 -1,800 Descending Boston Center
12:25AM 42.8600 -71.9953 43° Northeast 345 397 8,500 -1,980 Descending Boston Center
12:26AM 42.9286 -71.9097 42° Northeast 338 389 6,500 -1,740 Descending Boston Center
12:27AM 42.9906 -71.8297 43° Northeast 318 366 5,100 -1,260 Descending Boston Center
12:28AM 43.0464 -71.7469 47° Northeast 303 349 4,000 -1,080 Descending Boston Center
12:29AM 43.0792 -71.6469 66° East 286 329 3,000 -900 Descending Boston Center
12:30AM 43.0825 -71.5333 88° East 254 292 2,100 -420 Descending Boston Center
12:31AM 43.0383 -71.4997 151° Southeast 199 229 2,100 -360 Level Boston Center
12:32AM 42.9944 -71.4722 155° Southeast 172 198 1,400 -720 Descending Boston Center
12:33AM 42.9631 -71.4528 156° South 144 166 700 -540 Descending Boston Center
12:34AM 42.9275 -71.4333 158° South 139 160 400 -300 Descending Boston Center
12:39AM 42.9167 -71.4333 316° Northwest  Level FlightAware Approximate
12:46AM 42.9328 -71.4358 316° Northwest  Level Estimated
12:47AM 42.9328 -71.4358 316° Northwest  Level Estimated
12:48AM 42.9328 -71.4358 316° Northwest  Level Estimated
12:49AM 42.9328 -71.4358 316° Northwest  Level Estimated
12:50AM 42.9328 -71.4358 316° Northwest  Level Estimated